Camp Richardson, California
Current Conditions -  °F | °C
As of 12:53 AM on Wednesday 22 Oct 2014 (Local Time) from KTVL Reporting Station
Clear Clear  
Wind Chill: 33°   Ceiling: Unl
Heat Index: 33°   Visibility: 10mi
Dew Point: 27°   Wind: 3mph
Humidity: 78%   Direction: 190°S
Pressure: 30.13"   Gusts: NA
Location:  38.9467°N, 119.967°W
Report Text: KTVL 220753Z AUTO 19003KT 10SM CLR 01/M03 A3013 RMK AO2 SLP181 T00061028 401560006 $
Loading
Personal Weather Stations






























Interactive Weather Map
Tropical Storm Tracking
New forecast layout! Learn more

10-Day Weather Forecast

Advertisements
Track Severe Weather on mobile